Pagrindinis puslapis
METAR-TAF:

METAR-TAF

Oro uostai :

Holzdorf, Vokietija

platuma: 51-46N, ilguma: 013-11E, Aukštis: 79 m

Dabartinis oras

Ataskaita buvo paskelbta 24 minutes, ne 21:00 UTC
Vėjas 9 kt iš Pietų
Temperatūra 9°C
Drėgmė 71%
Slėgis 1010 hPa
Matomumas 10 km arba daugiau
Mažai debesys ne aukštis 5800 ft
Išsisklaidę debesys ne aukštis 21000 ft

METAR: ETSH 272100Z 18009KT 9999 FEW058 SCT210 09/04 Q1010 BLACKBLU+FCST CNL

Laikas: 22:24 (21:24 UTC)

Prognozė

Ataskaita buvo paskelbta 6 valandos ir 31 minutes, ne 14:53 UTC
Prognozė galioja nuo 27 metu 15 UTC su 27 metu 24 UTC
Vėjas 8 kt iš Pietų
Matomumas 10 km arba daugiau
Išsisklaidę debesys ne aukštis 3500 ft
Išsisklaidę debesys ne aukštis 20000 ft
Laikinai
nuo 27 metu 15 UTC su 27 metu 16 UTC
Vėjas 12 kt iš Pietvakarių
Matomumas 10 km arba daugiau
Su prošvaistėmis ne aukštis 3500 ft

TAF: ETSH 271453Z 2715/2724 18008KT 9999 NSW SCT035 SCT200 TEMPO 2715/2716 22012KT 9999 NSW BKN035

Orai ataskaitas ir orų prognozės (METAR, TAF).

turimą stotys yra geltonos ir raudonos taškus žemėlapyje.

Perkelti pele per norėdami pamatyti stoties vardą.

Tada spustelėkite, norėdami matyti oro stebėjimo ir prognozės.

Norėdami pakeisti žemėlapį: spustelėkite ant žalios mygtukų su juodo kryžiaus žemyn,; žalią mygtuką su brūkšneliu, jei norite nutolinti; arba žalių rodyklių gretimoms žemėlapius.


METAR-TAF: